sensor_id;sensor_type;location;lat;lon;timestamp;temperature;humidity
26051;DHT22;13825;53.496;10.020;2024-03-02T00:00:31;8.20;1.00
26051;DHT22;13825;53.496;10.020;2024-03-02T00:03:03;8.20;1.00
26051;DHT22;13825;53.496;10.020;2024-03-02T00:05:36;8.10;1.00
26051;DHT22;13825;53.496;10.020;2024-03-02T00:08:09;8.20;1.00
26051;DHT22;13825;53.496;10.020;2024-03-02T00:10:39;8.10;1.00
26051;DHT22;13825;53.496;10.020;2024-03-02T00:13:10;8.00;1.00
26051;DHT22;13825;53.496;10.020;2024-03-02T00:15:46;7.90;1.00
26051;DHT22;13825;53.496;10.020;2024-03-02T00:18:30;8.00;1.00
26051;DHT22;13825;53.496;10.020;2024-03-02T00:23:51;8.00;1.00
26051;DHT22;13825;53.496;10.020;2024-03-02T00:26:23;7.90;1.00
26051;DHT22;13825;53.496;10.020;2024-03-02T00:28:56;7.90;1.00
26051;DHT22;13825;53.496;10.020;2024-03-02T00:31:31;7.90;1.00
26051;DHT22;13825;53.496;10.020;2024-03-02T00:34:04;7.90;1.00
26051;DHT22;13825;53.496;10.020;2024-03-02T00:36:57;7.70;1.00
26051;DHT22;13825;53.496;10.020;2024-03-02T00:42:22;7.90;1.00
26051;DHT22;13825;53.496;10.020;2024-03-02T00:44:50;8.00;1.00
26051;DHT22;13825;53.496;10.020;2024-03-02T00:47:20;8.00;1.00
26051;DHT22;13825;53.496;10.020;2024-03-02T00:49:47;7.90;1.00
26051;DHT22;13825;53.496;10.020;2024-03-02T00:52:18;7.90;1.00
26051;DHT22;13825;53.496;10.020;2024-03-02T00:54:45;7.90;5.20
26051;DHT22;13825;53.496;10.020;2024-03-02T00:57:14;8.00;1.00
26051;DHT22;13825;53.496;10.020;2024-03-02T00:59:54;8.00;1.00
26051;DHT22;13825;53.496;10.020;2024-03-02T01:02:24;7.80;11.10
26051;DHT22;13825;53.496;10.020;2024-03-02T01:04:51;7.90;18.20
26051;DHT22;13825;53.496;10.020;2024-03-02T01:07:17;7.90;22.60
26051;DHT22;13825;53.496;10.020;2024-03-02T01:09:49;7.90;13.70
26051;DHT22;13825;53.496;10.020;2024-03-02T01:12:16;7.90;12.00
26051;DHT22;13825;53.496;10.020;2024-03-02T01:14:48;7.90;1.00
26051;DHT22;13825;53.496;10.020;2024-03-02T01:17:20;7.90;2.60
26051;DHT22;13825;53.496;10.020;2024-03-02T01:19:48;8.00;10.60
26051;DHT22;13825;53.496;10.020;2024-03-02T01:22:15;8.00;11.80
26051;DHT22;13825;53.496;10.020;2024-03-02T01:24:43;8.00;7.20
26051;DHT22;13825;53.496;10.020;2024-03-02T01:27:10;8.10;1.00
26051;DHT22;13825;53.496;10.020;2024-03-02T01:29:37;8.10;1.00
26051;DHT22;13825;53.496;10.020;2024-03-02T01:32:06;8.10;1.00
26051;DHT22;13825;53.496;10.020;2024-03-02T01:34:43;8.00;1.00
26051;DHT22;13825;53.496;10.020;2024-03-02T01:37:12;7.80;1.00
26051;DHT22;13825;53.496;10.020;2024-03-02T01:39:40;7.90;13.20
26051;DHT22;13825;53.496;10.020;2024-03-02T01:42:12;7.90;12.80
26051;DHT22;13825;53.496;10.020;2024-03-02T01:44:50;7.90;13.10
26051;DHT22;13825;53.496;10.020;2024-03-02T01:47:19;7.90;5.40
26051;DHT22;13825;53.496;10.020;2024-03-02T01:49:52;7.90;17.00
26051;DHT22;13825;53.496;10.020;2024-03-02T01:52:19;7.80;22.50
26051;DHT22;13825;53.496;10.020;2024-03-02T01:54:52;7.80;13.30
26051;DHT22;13825;53.496;10.020;2024-03-02T01:57:20;7.70;22.30
26051;DHT22;13825;53.496;10.020;2024-03-02T01:59:54;7.70;33.80
26051;DHT22;13825;53.496;10.020;2024-03-02T02:02:30;7.70;41.10
26051;DHT22;13825;53.496;10.020;2024-03-02T02:05:02;7.70;35.50
26051;DHT22;13825;53.496;10.020;2024-03-02T02:07:35;7.70;50.50
26051;DHT22;13825;53.496;10.020;2024-03-02T02:10:04;7.60;51.80
26051;DHT22;13825;53.496;10.020;2024-03-02T02:12:31;7.70;90.90
26051;DHT22;13825;53.496;10.020;2024-03-02T02:14:59;7.70;80.00
26051;DHT22;13825;53.496;10.020;2024-03-02T02:17:31;7.70;53.00
26051;DHT22;13825;53.496;10.020;2024-03-02T02:19:58;7.70;84.20
26051;DHT22;13825;53.496;10.020;2024-03-02T02:22:26;7.70;78.70
26051;DHT22;13825;53.496;10.020;2024-03-02T02:25:05;7.70;58.30
26051;DHT22;13825;53.496;10.020;2024-03-02T02:27:32;7.70;56.60
26051;DHT22;13825;53.496;10.020;2024-03-02T02:30:08;7.50;90.00
26051;DHT22;13825;53.496;10.020;2024-03-02T02:32:38;7.50;99.90
26051;DHT22;13825;53.496;10.020;2024-03-02T02:35:18;7.40;99.90
26051;DHT22;13825;53.496;10.020;2024-03-02T02:37:51;7.50;99.90
26051;DHT22;13825;53.496;10.020;2024-03-02T02:40:30;7.40;99.90
26051;DHT22;13825;53.496;10.020;2024-03-02T02:43:00;7.40;99.90
26051;DHT22;13825;53.496;10.020;2024-03-02T02:48:14;7.40;99.90
26051;DHT22;13825;53.496;10.020;2024-03-02T02:50:41;7.40;99.90
26051;DHT22;13825;53.496;10.020;2024-03-02T02:53:12;7.40;99.90
26051;DHT22;13825;53.496;10.020;2024-03-02T02:55:39;7.40;99.90
26051;DHT22;13825;53.496;10.020;2024-03-02T02:58:12;7.40;99.90
26051;DHT22;13825;53.496;10.020;2024-03-02T03:01:00;7.30;99.90
26051;DHT22;13825;53.496;10.020;2024-03-02T03:03:33;7.30;99.90
26051;DHT22;13825;53.496;10.020;2024-03-02T03:06:22;7.40;99.90
26051;DHT22;13825;53.496;10.020;2024-03-02T03:09:09;7.40;99.90
26051;DHT22;13825;53.496;10.020;2024-03-02T03:11:40;7.30;99.90
26051;DHT22;13825;53.496;10.020;2024-03-02T03:14:16;7.30;99.90
26051;DHT22;13825;53.496;10.020;2024-03-02T03:16:56;7.20;99.90
26051;DHT22;13825;53.496;10.020;2024-03-02T03:19:39;7.30;99.90
26051;DHT22;13825;53.496;10.020;2024-03-02T03:22:11;7.30;99.90
26051;DHT22;13825;53.496;10.020;2024-03-02T03:24:47;7.30;99.90
26051;DHT22;13825;53.496;10.020;2024-03-02T03:27:17;7.30;99.90
26051;DHT22;13825;53.496;10.020;2024-03-02T03:29:50;7.40;99.90
26051;DHT22;13825;53.496;10.020;2024-03-02T03:32:22;7.30;99.90
26051;DHT22;13825;53.496;10.020;2024-03-02T03:34:54;7.40;99.90
26051;DHT22;13825;53.496;10.020;2024-03-02T03:37:25;7.40;99.90
26051;DHT22;13825;53.496;10.020;2024-03-02T03:40:08;7.30;99.90
26051;DHT22;13825;53.496;10.020;2024-03-02T03:42:42;7.30;99.90
26051;DHT22;13825;53.496;10.020;2024-03-02T03:45:12;7.40;99.90
26051;DHT22;13825;53.496;10.020;2024-03-02T03:47:50;7.40;99.90
26051;DHT22;13825;53.496;10.020;2024-03-02T03:50:23;7.40;99.90
26051;DHT22;13825;53.496;10.020;2024-03-02T03:52:51;7.40;99.90
26051;DHT22;13825;53.496;10.020;2024-03-02T03:55:43;7.40;99.90
26051;DHT22;13825;53.496;10.020;2024-03-02T03:58:24;7.30;99.90
26051;DHT22;13825;53.496;10.020;2024-03-02T04:01:07;7.30;99.90
26051;DHT22;13825;53.496;10.020;2024-03-02T04:03:43;7.30;99.90
26051;DHT22;13825;53.496;10.020;2024-03-02T04:06:12;7.40;99.90
26051;DHT22;13825;53.496;10.020;2024-03-02T04:08:42;7.30;99.90
26051;DHT22;13825;53.496;10.020;2024-03-02T04:11:15;7.20;99.90
26051;DHT22;13825;53.496;10.020;2024-03-02T04:13:47;7.30;99.90
26051;DHT22;13825;53.496;10.020;2024-03-02T04:16:15;7.30;99.90
26051;DHT22;13825;53.496;10.020;2024-03-02T04:18:42;7.20;99.90
26051;DHT22;13825;53.496;10.020;2024-03-02T04:21:09;7.30;99.90
26051;DHT22;13825;53.496;10.020;2024-03-02T04:23:39;7.30;99.90
26051;DHT22;13825;53.496;10.020;2024-03-02T04:26:15;7.30;99.40
26051;DHT22;13825;53.496;10.020;2024-03-02T04:28:47;7.30;85.50
26051;DHT22;13825;53.496;10.020;2024-03-02T04:31:15;7.30;77.20
26051;DHT22;13825;53.496;10.020;2024-03-02T04:33:45;7.20;72.90
26051;DHT22;13825;53.496;10.020;2024-03-02T04:36:13;7.20;84.30
26051;DHT22;13825;53.496;10.020;2024-03-02T04:38:44;7.30;76.20
26051;DHT22;13825;53.496;10.020;2024-03-02T04:41:25;7.20;69.20
26051;DHT22;13825;53.496;10.020;2024-03-02T04:44:00;7.20;74.20
26051;DHT22;13825;53.496;10.020;2024-03-02T04:46:36;7.20;69.80
26051;DHT22;13825;53.496;10.020;2024-03-02T04:49:11;7.10;52.60
26051;DHT22;13825;53.496;10.020;2024-03-02T04:51:45;7.10;99.70
26051;DHT22;13825;53.496;10.020;2024-03-02T04:54:13;7.10;89.70
26051;DHT22;13825;53.496;10.020;2024-03-02T04:56:58;7.00;89.50
26051;DHT22;13825;53.496;10.020;2024-03-02T04:59:28;7.00;99.90
26051;DHT22;13825;53.496;10.020;2024-03-02T05:01:54;7.10;98.70
26051;DHT22;13825;53.496;10.020;2024-03-02T05:04:35;7.00;99.90
26051;DHT22;13825;53.496;10.020;2024-03-02T05:07:05;7.00;99.90
26051;DHT22;13825;53.496;10.020;2024-03-02T05:09:33;7.10;99.90
26051;DHT22;13825;53.496;10.020;2024-03-02T05:12:16;7.00;99.90
26051;DHT22;13825;53.496;10.020;2024-03-02T05:15:06;7.00;99.90
26051;DHT22;13825;53.496;10.020;2024-03-02T05:17:33;7.10;96.00
26051;DHT22;13825;53.496;10.020;2024-03-02T05:20:06;7.10;75.00
26051;DHT22;13825;53.496;10.020;2024-03-02T05:22:44;7.10;74.80
26051;DHT22;13825;53.496;10.020;2024-03-02T05:25:13;7.10;67.90
26051;DHT22;13825;53.496;10.020;2024-03-02T05:27:47;7.10;59.10
26051;DHT22;13825;53.496;10.020;2024-03-02T05:30:17;6.90;99.90
26051;DHT22;13825;53.496;10.020;2024-03-02T05:32:46;6.90;99.90
26051;DHT22;13825;53.496;10.020;2024-03-02T05:35:15;6.90;99.90
26051;DHT22;13825;53.496;10.020;2024-03-02T05:37:47;6.80;99.90
26051;DHT22;13825;53.496;10.020;2024-03-02T05:40:20;6.90;99.90
26051;DHT22;13825;53.496;10.020;2024-03-02T05:42:55;6.90;99.90
26051;DHT22;13825;53.496;10.020;2024-03-02T05:45:25;6.90;99.90
26051;DHT22;13825;53.496;10.020;2024-03-02T05:47:56;6.90;90.70
26051;DHT22;13825;53.496;10.020;2024-03-02T05:50:23;6.90;99.90
26051;DHT22;13825;53.496;10.020;2024-03-02T05:52:53;6.80;99.90
26051;DHT22;13825;53.496;10.020;2024-03-02T05:55:24;6.80;99.90
26051;DHT22;13825;53.496;10.020;2024-03-02T05:57:51;6.70;99.90
26051;DHT22;13825;53.496;10.020;2024-03-02T06:00:38;6.70;99.90
26051;DHT22;13825;53.496;10.020;2024-03-02T06:03:05;6.70;99.90
26051;DHT22;13825;53.496;10.020;2024-03-02T06:05:34;6.70;99.90
26051;DHT22;13825;53.496;10.020;2024-03-02T06:08:03;6.80;99.90
26051;DHT22;13825;53.496;10.020;2024-03-02T06:10:30;6.80;99.90
26051;DHT22;13825;53.496;10.020;2024-03-02T06:12:59;6.80;99.90
26051;DHT22;13825;53.496;10.020;2024-03-02T06:15:34;6.70;99.90
26051;DHT22;13825;53.496;10.020;2024-03-02T06:18:05;6.70;99.90
26051;DHT22;13825;53.496;10.020;2024-03-02T06:20:34;6.70;99.90
26051;DHT22;13825;53.496;10.020;2024-03-02T06:23:04;6.70;99.90
26051;DHT22;13825;53.496;10.020;2024-03-02T06:25:31;6.70;99.90
26051;DHT22;13825;53.496;10.020;2024-03-02T06:28:02;6.70;98.00
26051;DHT22;13825;53.496;10.020;2024-03-02T06:30:31;6.60;99.90
26051;DHT22;13825;53.496;10.020;2024-03-02T06:33:02;6.60;99.90
26051;DHT22;13825;53.496;10.020;2024-03-02T06:35:34;6.60;97.30
26051;DHT22;13825;53.496;10.020;2024-03-02T06:38:06;6.60;98.40
26051;DHT22;13825;53.496;10.020;2024-03-02T06:40:33;6.60;99.90
26051;DHT22;13825;53.496;10.020;2024-03-02T06:43:08;6.60;99.90
26051;DHT22;13825;53.496;10.020;2024-03-02T06:45:38;6.70;99.90
26051;DHT22;13825;53.496;10.020;2024-03-02T06:48:13;6.70;99.20
26051;DHT22;13825;53.496;10.020;2024-03-02T06:50:55;6.70;93.40
26051;DHT22;13825;53.496;10.020;2024-03-02T06:53:32;6.80;73.20
26051;DHT22;13825;53.496;10.020;2024-03-02T06:56:16;6.70;69.50
26051;DHT22;13825;53.496;10.020;2024-03-02T06:59:13;6.80;80.70
26051;DHT22;13825;53.496;10.020;2024-03-02T07:04:51;6.80;71.80
26051;DHT22;13825;53.496;10.020;2024-03-02T07:13:49;6.90;59.00
26051;DHT22;13825;53.496;10.020;2024-03-02T07:19:49;7.10;68.10
26051;DHT22;13825;53.496;10.020;2024-03-02T07:22:36;7.10;59.00
26051;DHT22;13825;53.496;10.020;2024-03-02T08:05:28;7.90;1.00
26051;DHT22;13825;53.496;10.020;2024-03-02T08:11:38;8.10;1.00
26051;DHT22;13825;53.496;10.020;2024-03-02T08:14:26;8.10;1.00
26051;DHT22;13825;53.496;10.020;2024-03-02T08:17:09;8.20;1.00
26051;DHT22;13825;53.496;10.020;2024-03-02T08:23:06;8.30;1.00
26051;DHT22;13825;53.496;10.020;2024-03-02T08:25:54;8.20;1.00
26051;DHT22;13825;53.496;10.020;2024-03-02T08:31:37;8.30;1.00
26051;DHT22;13825;53.496;10.020;2024-03-02T08:46:18;8.70;1.00
26051;DHT22;13825;53.496;10.020;2024-03-02T08:48:45;8.80;1.00
26051;DHT22;13825;53.496;10.020;2024-03-02T08:51:11;9.00;1.00
26051;DHT22;13825;53.496;10.020;2024-03-02T08:53:38;9.00;1.00
26051;DHT22;13825;53.496;10.020;2024-03-02T08:56:05;9.10;1.00
26051;DHT22;13825;53.496;10.020;2024-03-02T08:58:32;9.00;1.00
26051;DHT22;13825;53.496;10.020;2024-03-02T09:00:59;9.20;1.00
26051;DHT22;13825;53.496;10.020;2024-03-02T09:03:27;9.50;1.00
26051;DHT22;13825;53.496;10.020;2024-03-02T09:05:56;9.70;1.00
26051;DHT22;13825;53.496;10.020;2024-03-02T09:08:23;9.80;1.00
26051;DHT22;13825;53.496;10.020;2024-03-02T09:10:50;10.00;1.00
26051;DHT22;13825;53.496;10.020;2024-03-02T09:13:17;10.20;1.00
26051;DHT22;13825;53.496;10.020;2024-03-02T09:15:44;10.30;1.00
26051;DHT22;13825;53.496;10.020;2024-03-02T09:18:11;10.10;1.00
26051;DHT22;13825;53.496;10.020;2024-03-02T09:20:39;10.20;1.00
26051;DHT22;13825;53.496;10.020;2024-03-02T09:23:05;10.50;1.00
26051;DHT22;13825;53.496;10.020;2024-03-02T09:25:32;10.20;1.00
26051;DHT22;13825;53.496;10.020;2024-03-02T09:27:59;10.30;1.00
26051;DHT22;13825;53.496;10.020;2024-03-02T09:30:25;10.40;1.00
26051;DHT22;13825;53.496;10.020;2024-03-02T09:32:52;10.30;1.00
26051;DHT22;13825;53.496;10.020;2024-03-02T09:35:19;10.40;1.00
26051;DHT22;13825;53.496;10.020;2024-03-02T09:37:47;10.60;1.00
26051;DHT22;13825;53.496;10.020;2024-03-02T09:40:14;10.70;1.00
26051;DHT22;13825;53.496;10.020;2024-03-02T09:42:41;11.40;1.00
26051;DHT22;13825;53.496;10.020;2024-03-02T09:45:09;11.10;1.00
26051;DHT22;13825;53.496;10.020;2024-03-02T09:47:35;11.10;1.00
26051;DHT22;13825;53.496;10.020;2024-03-02T09:50:02;11.40;1.00
26051;DHT22;13825;53.496;10.020;2024-03-02T09:52:29;11.60;1.00
26051;DHT22;13825;53.496;10.020;2024-03-02T09:54:59;11.60;1.00
26051;DHT22;13825;53.496;10.020;2024-03-02T09:57:26;11.60;1.00
26051;DHT22;13825;53.496;10.020;2024-03-02T09:59:53;11.80;1.00
26051;DHT22;13825;53.496;10.020;2024-03-02T10:02:20;11.90;1.00
26051;DHT22;13825;53.496;10.020;2024-03-02T10:04:48;11.90;1.00
26051;DHT22;13825;53.496;10.020;2024-03-02T10:07:16;12.00;1.00
26051;DHT22;13825;53.496;10.020;2024-03-02T10:09:43;12.20;1.00
26051;DHT22;13825;53.496;10.020;2024-03-02T10:12:12;12.50;1.00
26051;DHT22;13825;53.496;10.020;2024-03-02T10:14:39;12.50;1.00
26051;DHT22;13825;53.496;10.020;2024-03-02T10:17:06;12.70;1.00
26051;DHT22;13825;53.496;10.020;2024-03-02T10:19:33;12.70;1.00
26051;DHT22;13825;53.496;10.020;2024-03-02T10:22:02;12.80;1.00
26051;DHT22;13825;53.496;10.020;2024-03-02T10:24:34;12.90;1.00
26051;DHT22;13825;53.496;10.020;2024-03-02T10:27:01;12.70;1.00
26051;DHT22;13825;53.496;10.020;2024-03-02T10:29:30;12.50;1.00
26051;DHT22;13825;53.496;10.020;2024-03-02T10:31:57;12.70;1.00
26051;DHT22;13825;53.496;10.020;2024-03-02T10:34:25;12.80;1.00
26051;DHT22;13825;53.496;10.020;2024-03-02T10:36:52;12.80;1.00
26051;DHT22;13825;53.496;10.020;2024-03-02T10:39:19;13.00;1.00
26051;DHT22;13825;53.496;10.020;2024-03-02T10:41:46;12.90;1.00
26051;DHT22;13825;53.496;10.020;2024-03-02T10:44:16;12.80;1.00
26051;DHT22;13825;53.496;10.020;2024-03-02T10:46:45;12.90;1.00
26051;DHT22;13825;53.496;10.020;2024-03-02T10:49:11;12.80;1.00
26051;DHT22;13825;53.496;10.020;2024-03-02T10:51:38;13.10;1.00
26051;DHT22;13825;53.496;10.020;2024-03-02T10:54:05;13.20;1.00
26051;DHT22;13825;53.496;10.020;2024-03-02T10:56:32;13.30;1.00
26051;DHT22;13825;53.496;10.020;2024-03-02T10:59:02;13.50;1.00
26051;DHT22;13825;53.496;10.020;2024-03-02T11:01:32;13.30;1.00
26051;DHT22;13825;53.496;10.020;2024-03-02T11:04:01;13.30;99.90
26051;DHT22;13825;53.496;10.020;2024-03-02T11:06:28;13.30;99.90
26051;DHT22;13825;53.496;10.020;2024-03-02T11:09:00;13.10;99.90
26051;DHT22;13825;53.496;10.020;2024-03-02T11:11:29;13.10;1.00
26051;DHT22;13825;53.496;10.020;2024-03-02T11:13:56;13.10;99.90
26051;DHT22;13825;53.496;10.020;2024-03-02T11:16:27;12.90;99.90
26051;DHT22;13825;53.496;10.020;2024-03-02T11:19:01;13.00;1.00
26051;DHT22;13825;53.496;10.020;2024-03-02T11:21:29;13.20;1.00
26051;DHT22;13825;53.496;10.020;2024-03-02T11:24:00;13.30;1.00
26051;DHT22;13825;53.496;10.020;2024-03-02T11:26:28;13.30;1.00
26051;DHT22;13825;53.496;10.020;2024-03-02T11:28:55;13.30;99.90
26051;DHT22;13825;53.496;10.020;2024-03-02T11:34:18;13.20;99.90
26051;DHT22;13825;53.496;10.020;2024-03-02T11:36:55;13.50;99.90
26051;DHT22;13825;53.496;10.020;2024-03-02T11:39:22;13.40;99.90
26051;DHT22;13825;53.496;10.020;2024-03-02T11:41:49;13.30;99.90
26051;DHT22;13825;53.496;10.020;2024-03-02T11:44:18;13.10;99.90
26051;DHT22;13825;53.496;10.020;2024-03-02T11:46:51;13.30;99.90
26051;DHT22;13825;53.496;10.020;2024-03-02T11:49:21;13.30;99.90
26051;DHT22;13825;53.496;10.020;2024-03-02T11:52:06;13.00;99.90
26051;DHT22;13825;53.496;10.020;2024-03-02T11:54:33;12.80;99.90
26051;DHT22;13825;53.496;10.020;2024-03-02T11:57:01;12.80;99.90
26051;DHT22;13825;53.496;10.020;2024-03-02T11:59:28;12.70;99.90
26051;DHT22;13825;53.496;10.020;2024-03-02T12:01:55;12.90;99.90
26051;DHT22;13825;53.496;10.020;2024-03-02T12:04:25;12.90;99.90
26051;DHT22;13825;53.496;10.020;2024-03-02T12:06:56;13.10;99.90
26051;DHT22;13825;53.496;10.020;2024-03-02T12:09:25;13.20;99.90
26051;DHT22;13825;53.496;10.020;2024-03-02T12:12:02;13.30;99.90
26051;DHT22;13825;53.496;10.020;2024-03-02T12:14:30;13.30;99.90
26051;DHT22;13825;53.496;10.020;2024-03-02T12:20:23;13.30;99.90
26051;DHT22;13825;53.496;10.020;2024-03-02T14:55:24;13.60;99.90
26051;DHT22;13825;53.496;10.020;2024-03-02T15:01:22;13.80;99.90
26051;DHT22;13825;53.496;10.020;2024-03-02T15:06:58;13.70;99.90
26051;DHT22;13825;53.496;10.020;2024-03-02T15:09:57;13.50;99.90
26051;DHT22;13825;53.496;10.020;2024-03-02T16:08:40;13.20;99.90
26051;DHT22;13825;53.496;10.020;2024-03-02T16:11:42;13.10;99.90
26051;DHT22;13825;53.496;10.020;2024-03-02T16:14:46;13.10;99.90
26051;DHT22;13825;53.496;10.020;2024-03-02T16:18:05;13.30;99.90
26051;DHT22;13825;53.496;10.020;2024-03-02T16:20:53;14.00;99.90
26051;DHT22;13825;53.496;10.020;2024-03-02T16:39:32;13.30;99.90
26051;DHT22;13825;53.496;10.020;2024-03-02T16:47:55;12.10;99.90
26051;DHT22;13825;53.496;10.020;2024-03-02T16:50:44;11.80;99.90
26051;DHT22;13825;53.496;10.020;2024-03-02T16:54:03;11.50;99.90
26051;DHT22;13825;53.496;10.020;2024-03-02T17:02:48;10.80;99.90
26051;DHT22;13825;53.496;10.020;2024-03-02T17:05:34;10.70;99.90
26051;DHT22;13825;53.496;10.020;2024-03-02T17:11:36;10.40;99.90
26051;DHT22;13825;53.496;10.020;2024-03-02T17:14:44;10.30;99.90
26051;DHT22;13825;53.496;10.020;2024-03-02T17:26:14;9.80;99.90
26051;DHT22;13825;53.496;10.020;2024-03-02T17:29:06;9.70;99.90
26051;DHT22;13825;53.496;10.020;2024-03-02T17:32:14;9.60;99.90
26051;DHT22;13825;53.496;10.020;2024-03-02T17:34:55;9.50;99.90
26051;DHT22;13825;53.496;10.020;2024-03-02T17:37:47;9.50;99.90
26051;DHT22;13825;53.496;10.020;2024-03-02T17:40:28;9.40;99.90
26051;DHT22;13825;53.496;10.020;2024-03-02T17:43:13;9.40;99.90
26051;DHT22;13825;53.496;10.020;2024-03-02T17:46:01;9.30;99.90
26051;DHT22;13825;53.496;10.020;2024-03-02T17:48:50;9.40;99.90
26051;DHT22;13825;53.496;10.020;2024-03-02T17:51:41;9.30;99.90
26051;DHT22;13825;53.496;10.020;2024-03-02T17:54:16;9.30;99.90
26051;DHT22;13825;53.496;10.020;2024-03-02T17:56:43;9.20;99.90
26051;DHT22;13825;53.496;10.020;2024-03-02T17:59:30;9.10;99.90
26051;DHT22;13825;53.496;10.020;2024-03-02T18:04:54;9.00;99.90
26051;DHT22;13825;53.496;10.020;2024-03-02T18:07:42;8.90;99.90
26051;DHT22;13825;53.496;10.020;2024-03-02T18:10:27;9.00;99.90
26051;DHT22;13825;53.496;10.020;2024-03-02T18:13:04;8.90;99.90
26051;DHT22;13825;53.496;10.020;2024-03-02T18:18:56;8.80;1.00
26051;DHT22;13825;53.496;10.020;2024-03-02T18:21:44;8.70;1.00
26051;DHT22;13825;53.496;10.020;2024-03-02T18:27:28;8.60;1.00
26051;DHT22;13825;53.496;10.020;2024-03-02T18:30:06;8.60;1.00
26051;DHT22;13825;53.496;10.020;2024-03-02T18:32:48;8.50;1.00
26051;DHT22;13825;53.496;10.020;2024-03-02T18:35:35;8.60;1.00
26051;DHT22;13825;53.496;10.020;2024-03-02T18:38:22;8.40;1.00
26051;DHT22;13825;53.496;10.020;2024-03-02T18:40:54;8.40;1.00
26051;DHT22;13825;53.496;10.020;2024-03-02T18:43:41;8.50;1.00
26051;DHT22;13825;53.496;10.020;2024-03-02T18:46:22;8.50;1.00
26051;DHT22;13825;53.496;10.020;2024-03-02T18:49:05;8.50;1.00
26051;DHT22;13825;53.496;10.020;2024-03-02T18:51:49;8.50;1.00
26051;DHT22;13825;53.496;10.020;2024-03-02T18:54:22;8.50;1.00
26051;DHT22;13825;53.496;10.020;2024-03-02T18:56:57;8.50;1.00
26051;DHT22;13825;53.496;10.020;2024-03-02T18:59:30;8.50;1.00
26051;DHT22;13825;53.496;10.020;2024-03-02T19:02:21;8.50;1.00
26051;DHT22;13825;53.496;10.020;2024-03-02T19:05:13;8.50;1.00
26051;DHT22;13825;53.496;10.020;2024-03-02T19:07:56;8.50;1.00
26051;DHT22;13825;53.496;10.020;2024-03-02T19:10:33;8.50;1.00
26051;DHT22;13825;53.496;10.020;2024-03-02T19:13:25;8.50;1.00
26051;DHT22;13825;53.496;10.020;2024-03-02T19:19:01;8.40;1.00
26051;DHT22;13825;53.496;10.020;2024-03-02T19:21:43;8.40;1.00
26051;DHT22;13825;53.496;10.020;2024-03-02T19:27:24;8.30;1.00
26051;DHT22;13825;53.496;10.020;2024-03-02T19:30:07;8.30;1.00
26051;DHT22;13825;53.496;10.020;2024-03-02T19:32:37;8.30;1.00
26051;DHT22;13825;53.496;10.020;2024-03-02T19:35:04;8.30;1.00
26051;DHT22;13825;53.496;10.020;2024-03-02T19:37:31;8.30;1.00
26051;DHT22;13825;53.496;10.020;2024-03-02T19:40:00;8.30;1.00
26051;DHT22;13825;53.496;10.020;2024-03-02T19:42:36;8.20;1.00
26051;DHT22;13825;53.496;10.020;2024-03-02T19:45:03;8.20;1.00
26051;DHT22;13825;53.496;10.020;2024-03-02T19:47:34;8.20;1.00
26051;DHT22;13825;53.496;10.020;2024-03-02T19:50:01;8.10;1.00
26051;DHT22;13825;53.496;10.020;2024-03-02T19:52:29;8.10;1.00
26051;DHT22;13825;53.496;10.020;2024-03-02T19:54:56;8.20;1.00
26051;DHT22;13825;53.496;10.020;2024-03-02T19:57:23;8.10;1.00
26051;DHT22;13825;53.496;10.020;2024-03-02T19:59:52;8.10;1.00
26051;DHT22;13825;53.496;10.020;2024-03-02T20:02:20;8.00;1.00
26051;DHT22;13825;53.496;10.020;2024-03-02T20:04:52;8.00;1.00
26051;DHT22;13825;53.496;10.020;2024-03-02T20:07:21;8.00;1.00
26051;DHT22;13825;53.496;10.020;2024-03-02T20:09:48;8.00;1.00
26051;DHT22;13825;53.496;10.020;2024-03-02T20:12:15;7.90;1.00
26051;DHT22;13825;53.496;10.020;2024-03-02T20:14:44;7.90;1.00
26051;DHT22;13825;53.496;10.020;2024-03-02T20:17:14;7.90;1.00
26051;DHT22;13825;53.496;10.020;2024-03-02T20:19:43;7.90;1.00
26051;DHT22;13825;53.496;10.020;2024-03-02T20:22:12;7.80;1.00
26051;DHT22;13825;53.496;10.020;2024-03-02T20:24:40;7.80;1.00
26051;DHT22;13825;53.496;10.020;2024-03-02T20:27:08;7.80;1.00
26051;DHT22;13825;53.496;10.020;2024-03-02T20:29:36;7.70;1.00
26051;DHT22;13825;53.496;10.020;2024-03-02T20:32:03;7.70;1.00
26051;DHT22;13825;53.496;10.020;2024-03-02T20:34:32;7.70;1.00
26051;DHT22;13825;53.496;10.020;2024-03-02T20:36:59;7.60;1.00
26051;DHT22;13825;53.496;10.020;2024-03-02T20:39:26;7.60;1.00
26051;DHT22;13825;53.496;10.020;2024-03-02T20:41:53;7.60;1.00
26051;DHT22;13825;53.496;10.020;2024-03-02T20:44:19;7.60;1.00
26051;DHT22;13825;53.496;10.020;2024-03-02T20:46:49;7.60;1.00
26051;DHT22;13825;53.496;10.020;2024-03-02T20:49:16;7.60;1.00
26051;DHT22;13825;53.496;10.020;2024-03-02T20:51:47;7.70;1.00
26051;DHT22;13825;53.496;10.020;2024-03-02T20:54:14;7.50;1.00
26051;DHT22;13825;53.496;10.020;2024-03-02T20:56:44;7.50;1.00
26051;DHT22;13825;53.496;10.020;2024-03-02T20:59:14;7.50;1.00
26051;DHT22;13825;53.496;10.020;2024-03-02T21:01:46;7.40;1.00
26051;DHT22;13825;53.496;10.020;2024-03-02T21:04:14;7.40;1.00
26051;DHT22;13825;53.496;10.020;2024-03-02T21:06:42;7.40;1.00
26051;DHT22;13825;53.496;10.020;2024-03-02T21:09:12;7.40;1.00
26051;DHT22;13825;53.496;10.020;2024-03-02T21:11:41;7.40;1.00
26051;DHT22;13825;53.496;10.020;2024-03-02T21:14:11;7.40;1.00
26051;DHT22;13825;53.496;10.020;2024-03-02T21:16:40;7.30;1.00
26051;DHT22;13825;53.496;10.020;2024-03-02T21:19:06;7.30;1.00
26051;DHT22;13825;53.496;10.020;2024-03-02T21:21:37;7.20;1.00
26051;DHT22;13825;53.496;10.020;2024-03-02T21:24:07;7.20;1.00
26051;DHT22;13825;53.496;10.020;2024-03-02T21:26:38;7.20;1.00
26051;DHT22;13825;53.496;10.020;2024-03-02T21:29:06;7.10;1.00
26051;DHT22;13825;53.496;10.020;2024-03-02T21:31:34;7.20;1.00
26051;DHT22;13825;53.496;10.020;2024-03-02T21:34:07;7.10;1.00
26051;DHT22;13825;53.496;10.020;2024-03-02T21:36:34;7.10;1.00
26051;DHT22;13825;53.496;10.020;2024-03-02T21:39:02;7.10;1.00
26051;DHT22;13825;53.496;10.020;2024-03-02T21:41:32;7.10;1.00
26051;DHT22;13825;53.496;10.020;2024-03-02T21:44:00;7.10;1.00
26051;DHT22;13825;53.496;10.020;2024-03-02T21:46:29;7.10;1.00
26051;DHT22;13825;53.496;10.020;2024-03-02T21:48:55;7.00;1.00
26051;DHT22;13825;53.496;10.020;2024-03-02T21:51:29;7.00;1.00
26051;DHT22;13825;53.496;10.020;2024-03-02T21:53:56;7.10;1.00
26051;DHT22;13825;53.496;10.020;2024-03-02T21:56:24;7.00;1.00
26051;DHT22;13825;53.496;10.020;2024-03-02T21:58:53;7.00;1.00
26051;DHT22;13825;53.496;10.020;2024-03-02T22:01:22;7.00;1.00
26051;DHT22;13825;53.496;10.020;2024-03-02T22:03:55;6.90;1.00
26051;DHT22;13825;53.496;10.020;2024-03-02T22:06:21;6.90;1.00
26051;DHT22;13825;53.496;10.020;2024-03-02T22:08:48;6.90;1.00
26051;DHT22;13825;53.496;10.020;2024-03-02T22:11:15;6.80;1.00